Aérodrome :
LOGIN :

S'inscrire | Disclaimer

   EN    FR    IT 

 










Légende :    VFR   VFR Marginal   IFR   IFR Intensif   IFR Très Intensif
Visi : 
Plafond : 
>= 8 km
>= 3000ft
5 à 8 km
1000 à 3000 ft
1500m à 5 km
500 à 1000 ft
800 à 1500m
200 à 500 ft
< 800m
< 200 ft
Symboles :   Orages  Brouillard  Fortes neiges  Fortes précipitations  Vent > 20 kt
SIGMETs :   Divers  Orages  Givrage  Turbulence  Onde Orograph.  Cendres Volcan.







- Altitude de l'aérodrome : 268 ft
- Code IATA : BFS
- Voir les cartes d'approche


EGAA - Belfast Aldergrove

DERNIER METAR :
  • 162320Z 16012KT 6000 -RA SCT009 BKN014 OVC020 10/08 Q1006

METARs EXPIRÉS :
  • 162250Z 16011KT 9999 FEW010 BKN019 OVC025 10/09 Q1006
  • 162220Z 16012G22KT 9999 FEW008 SCT019 BKN024 10/09 Q1006
  • 162150Z 15013KT 9999 FEW024 SCT030 BKN035 10/08 Q1006
  • 162120Z 16011KT 9999 FEW024 SCT030 BKN047 10/08 Q1007
  • 162050Z 15009KT 9999 SCT044 10/07 Q1007

TAF TAF EGAA
Valide du 17 à 00h jusqu'au 18 à 00h UTC


162251Z 1700/1724 17020G30KT 9999 FEW020 SCT035
PROB30
TEMPO 1700/1705 BKN009
PROB40
TEMPO 1705/1709 7000 -RA -RADZ BKN009
BECMG 1708/1711 19015KT
TEMPO 1711/1717 19016G26KT
BECMG 1717/1720 19018G28KT
Pas de NOTAMs connus pour ce terrain.



MET'MAP, la Météo Aéronautique d'un coup d'oeil ! - Copyright ORBIFLY Décembre 2007 - Disclaimer

ORBIFLY MET'MAP TEAM :

Programmation & Développement : Alexandra Zaïnal
Conception & Développement : Baudouin d'Aumeries
Co-Programmation & Développement : Marc-Olivier Méhu
Soutien technique & logistique : Manuel Goepfert

Contact : metmap@orbifly.com




SOURCES & CREDITS :

   NOAA